createdAt,value
2023-04-12T00:00:30.705Z,1000.71
2023-04-12T00:01:08.851Z,1000.71
2023-04-12T00:01:19.436Z,1000.61
2023-04-12T00:01:50.703Z,1000.81
2023-04-12T00:02:23.769Z,1000.81
2023-04-12T00:02:40.858Z,1000.61
2023-04-12T00:03:10.749Z,1000.61
2023-04-12T00:03:35.098Z,1000.61
2023-04-12T00:03:59.017Z,1000.61
2023-04-12T00:04:31.789Z,1000.61
2023-04-12T00:05:02.696Z,1000.71
2023-04-12T00:05:36.603Z,1000.61
2023-04-12T00:06:06.633Z,1000.61
2023-04-12T00:06:34.592Z,1000.54
2023-04-12T00:06:54.650Z,1000.54
2023-04-12T00:07:26.672Z,1000.54
2023-04-12T00:07:59.433Z,1000.71
2023-04-12T00:08:30.637Z,1000.71
2023-04-12T00:09:03.519Z,1000.61
2023-04-12T00:09:34.576Z,1000.61
2023-04-12T00:10:07.827Z,1000.61
2023-04-12T00:10:34.607Z,1000.54
2023-04-12T00:10:54.656Z,1000.54
2023-04-12T00:11:26.631Z,1000.54
2023-04-12T00:11:58.604Z,1000.44
2023-04-12T00:12:30.588Z,1000.44
2023-04-12T00:13:02.732Z,1000.54
2023-04-12T00:13:34.600Z,1000.44
2023-04-12T00:14:06.613Z,1000.44
2023-04-12T00:14:34.603Z,1000.54
2023-04-12T00:14:54.699Z,1000.54
2023-04-12T00:15:27.610Z,1000.54
2023-04-12T00:15:58.655Z,1000.34
2023-04-12T00:16:31.511Z,1000.34
2023-04-12T00:17:02.738Z,1000.44
2023-04-12T00:17:35.525Z,1000.44
2023-04-12T00:18:06.662Z,1000.44
2023-04-12T00:18:34.618Z,1000.54
2023-04-12T00:18:54.623Z,1000.54
2023-04-12T00:19:26.670Z,1000.54
2023-04-12T00:20:00.053Z,1000.34
2023-04-12T00:20:31.079Z,1000.34
2023-04-12T00:21:03.438Z,1000.34
2023-04-12T00:21:35.155Z,1000.24
2023-04-12T00:22:07.494Z,1000.24
2023-04-12T00:22:35.481Z,1000.24
2023-04-12T00:22:55.383Z,1000.24
2023-04-12T00:23:26.763Z,1000.24
2023-04-12T00:23:59.760Z,1000.44
2023-04-12T00:24:30.815Z,1000.44
2023-04-12T00:25:02.677Z,1000.34
2023-04-12T00:25:34.920Z,1000.24
2023-04-12T00:26:06.581Z,1000.24
2023-04-12T00:26:35.536Z,1000.24
2023-04-12T00:26:54.629Z,1000.24
2023-04-12T00:27:28.552Z,1000.24
2023-04-12T00:27:58.594Z,1000.24
2023-04-12T00:28:31.349Z,1000.24
2023-04-12T00:29:02.701Z,1000.13
2023-04-12T00:29:35.685Z,1000.44
2023-04-12T00:30:06.786Z,1000.44
2023-04-12T00:30:34.556Z,1000.24
2023-04-12T00:30:54.665Z,1000.24
2023-04-12T00:31:26.725Z,1000.24
2023-04-12T00:31:59.544Z,1000.44
2023-04-12T00:32:30.880Z,1000.44
2023-04-12T00:33:03.599Z,1000.44
2023-04-12T00:33:36.055Z,1000.24
2023-04-12T00:34:10.342Z,1000.24
2023-04-12T00:34:35.606Z,1000.44
2023-04-12T00:34:54.669Z,1000.44
2023-04-12T00:35:26.667Z,1000.44
2023-04-12T00:35:58.639Z,1000.24
2023-04-12T00:36:30.591Z,1000.24
2023-04-12T00:37:02.633Z,1000.34
2023-04-12T00:37:35.514Z,1000.34
2023-04-12T00:38:07.527Z,1000.34
2023-04-12T00:38:34.560Z,1000.13
2023-04-12T00:38:54.578Z,1000.13
2023-04-12T00:39:26.713Z,1000.13
2023-04-12T00:39:59.513Z,1000.13
2023-04-12T00:40:31.040Z,1000.13
2023-04-12T00:41:03.500Z,1000.34
2023-04-12T00:41:35.346Z,1000.13
2023-04-12T00:42:07.495Z,1000.13
2023-04-12T00:42:34.692Z,1000.34
2023-04-12T00:42:54.711Z,1000.34
2023-04-12T00:43:26.654Z,1000.34
2023-04-12T00:43:58.991Z,1000.34
2023-04-12T00:44:30.663Z,1000.34
2023-04-12T00:45:02.893Z,1000.34
2023-04-12T00:45:36.143Z,1000.24
2023-04-12T00:46:06.630Z,1000.24
2023-04-12T00:46:34.637Z,1000.13
2023-04-12T00:46:55.538Z,1000.13
2023-04-12T00:47:27.520Z,1000.13
2023-04-12T00:47:58.752Z,1000.13
2023-04-12T00:48:31.506Z,1000.13
2023-04-12T00:49:02.675Z,1000.34
2023-04-12T00:49:35.597Z,1000.34
2023-04-12T00:50:06.621Z,1000.34
2023-04-12T00:50:34.575Z,1000.13
2023-04-12T00:50:54.835Z,1000.13
2023-04-12T00:51:27.585Z,1000.13
2023-04-12T00:51:59.480Z,1000.24
2023-04-12T00:52:30.745Z,1000.24
2023-04-12T00:53:03.372Z,1000.24
2023-04-12T00:53:35.305Z,1000.24
2023-04-12T00:54:07.482Z,1000.24
2023-04-12T00:54:34.585Z,1000.13
2023-04-12T00:54:54.611Z,1000.13
2023-04-12T00:55:26.625Z,1000.13
2023-04-12T00:55:58.619Z,999.93
2023-04-12T00:56:30.640Z,999.93
2023-04-12T00:57:02.659Z,1000.13
2023-04-12T00:57:34.617Z,1000.24
2023-04-12T00:58:06.628Z,1000.24
2023-04-12T00:58:34.592Z,999.93
2023-04-12T00:58:54.608Z,999.93
2023-04-12T00:59:27.481Z,999.93
2023-04-12T00:59:59.404Z,1000.34
2023-04-12T01:00:31.473Z,1000.34
2023-04-12T01:01:02.680Z,1000.24
2023-04-12T01:01:35.473Z,1000.13
2023-04-12T01:02:06.633Z,1000.13
2023-04-12T01:02:34.762Z,1000.24
2023-04-12T01:02:55.457Z,1000.24
2023-04-12T01:03:26.696Z,1000.24
2023-04-12T01:03:59.698Z,1000.03
2023-04-12T01:04:30.597Z,1000.03
2023-04-12T01:05:03.595Z,1000.03
2023-04-12T01:05:35.087Z,1000.13
2023-04-12T01:06:07.952Z,1000.13
2023-04-12T01:06:38.534Z,999.93
2023-04-12T01:07:11.503Z,999.93
2023-04-12T01:07:34.579Z,1000.03
2023-04-12T01:07:58.598Z,1000.03
2023-04-12T01:08:30.594Z,1000.03
2023-04-12T01:09:02.649Z,1000.03
2023-04-12T01:09:35.226Z,999.83
2023-04-12T01:10:06.517Z,999.83
2023-04-12T01:10:34.665Z,999.73
2023-04-12T01:10:54.570Z,999.73
2023-04-12T01:11:27.526Z,999.73
2023-04-12T01:11:58.583Z,999.83
2023-04-12T01:12:31.457Z,999.83
2023-04-12T01:13:02.661Z,999.93
2023-04-12T01:13:36.451Z,1000.24
2023-04-12T01:14:06.814Z,1000.24
2023-04-12T01:14:34.597Z,999.83
2023-04-12T01:14:54.630Z,999.83
2023-04-12T01:15:26.626Z,999.83
2023-04-12T01:15:59.608Z,999.93
2023-04-12T01:16:30.977Z,999.93
2023-04-12T01:17:03.485Z,999.93
2023-04-12T01:17:34.728Z,999.83
2023-04-12T01:18:07.408Z,999.83
2023-04-12T01:18:34.579Z,1000.13
2023-04-12T01:18:54.683Z,1000.13
2023-04-12T01:19:26.559Z,1000.13
2023-04-12T01:19:58.606Z,999.73
2023-04-12T01:20:30.601Z,999.73
2023-04-12T01:21:02.621Z,999.93
2023-04-12T01:21:34.605Z,999.83
2023-04-12T01:22:06.590Z,999.83
2023-04-12T01:22:34.590Z,999.73
2023-04-12T01:22:56.022Z,999.73
2023-04-12T01:23:27.531Z,999.73
2023-04-12T01:23:59.083Z,999.63
2023-04-12T01:24:31.567Z,999.63
2023-04-12T01:25:02.645Z,999.93
2023-04-12T01:25:35.485Z,999.73
2023-04-12T01:26:06.622Z,999.73
2023-04-12T01:26:34.669Z,999.63
2023-04-12T01:26:54.611Z,999.63
2023-04-12T01:27:26.559Z,999.63
2023-04-12T01:27:59.670Z,999.52
2023-04-12T01:28:30.581Z,999.52
2023-04-12T01:29:03.517Z,999.52
2023-04-12T01:29:35.507Z,999.63
2023-04-12T01:30:07.498Z,999.63
2023-04-12T01:30:34.849Z,999.42
2023-04-12T01:30:54.974Z,999.42
2023-04-12T01:31:26.592Z,999.42
2023-04-12T01:31:59.994Z,999.32
2023-04-12T01:32:30.690Z,999.32
2023-04-12T01:33:02.749Z,999.52
2023-04-12T01:33:34.561Z,999.52
2023-04-12T01:34:06.561Z,999.52
2023-04-12T01:34:34.553Z,999.52
2023-04-12T01:34:54.604Z,999.52
2023-04-12T01:35:27.388Z,999.52
2023-04-12T01:35:58.607Z,999.52
2023-04-12T01:36:31.336Z,999.52
2023-04-12T01:37:02.749Z,999.42
2023-04-12T01:37:35.978Z,999.42
2023-04-12T01:38:06.579Z,999.42
2023-04-12T01:38:34.600Z,999.42
2023-04-12T01:38:54.570Z,999.42
2023-04-12T01:39:26.560Z,999.42
2023-04-12T01:39:59.520Z,999.32
2023-04-12T01:40:30.577Z,999.32
2023-04-12T01:41:04.498Z,999.22
2023-04-12T01:41:34.589Z,999.42
2023-04-12T01:42:07.458Z,999.42
2023-04-12T01:42:34.576Z,999.22
2023-04-12T01:42:54.582Z,999.22
2023-04-12T01:43:26.588Z,999.22
2023-04-12T01:43:58.981Z,999.32
2023-04-12T01:44:31.584Z,999.32
2023-04-12T01:45:02.715Z,999.42
2023-04-12T01:45:34.648Z,999.32
2023-04-12T01:46:08.065Z,999.32
2023-04-12T01:46:34.622Z,999.32
2023-04-12T01:46:54.681Z,999.32
2023-04-12T01:47:27.580Z,999.32
2023-04-12T01:47:58.622Z,999.12
2023-04-12T01:48:31.850Z,999.12
2023-04-12T01:49:02.675Z,999.02
2023-04-12T01:49:36.533Z,999.22
2023-04-12T01:50:06.739Z,999.22
2023-04-12T01:50:35.221Z,999.22
2023-04-12T01:50:54.937Z,999.22
2023-04-12T01:51:26.703Z,999.22
2023-04-12T01:51:59.461Z,999.12
2023-04-12T01:52:30.572Z,999.12
2023-04-12T01:53:04.341Z,999.02
2023-04-12T01:53:34.805Z,999.22
2023-04-12T01:54:07.493Z,999.22
2023-04-12T01:54:35.091Z,999.22
2023-04-12T01:54:54.648Z,999.22
2023-04-12T01:55:26.556Z,999.22
2023-04-12T01:55:58.503Z,999.32
2023-04-12T01:56:30.953Z,999.32
2023-04-12T01:57:02.576Z,999.02
2023-04-12T01:57:34.556Z,999.12
2023-04-12T01:58:06.556Z,999.12
2023-04-12T01:58:35.281Z,999.02
2023-04-12T01:58:54.642Z,999.02
2023-04-12T01:59:27.585Z,999.02
2023-04-12T01:59:58.571Z,999.02
2023-04-12T02:00:31.465Z,999.02
2023-04-12T02:01:02.551Z,998.92
2023-04-12T02:01:35.910Z,999.22
2023-04-12T02:02:06.650Z,999.22
2023-04-12T02:02:34.718Z,998.92
2023-04-12T02:02:55.242Z,998.92
2023-04-12T02:03:26.617Z,998.92
2023-04-12T02:03:59.769Z,999.02
2023-04-12T02:04:30.536Z,999.02
2023-04-12T02:05:03.510Z,999.12
2023-04-12T02:05:34.840Z,998.92
2023-04-12T02:06:08.414Z,998.92
2023-04-12T02:06:34.977Z,998.92
2023-04-12T02:06:54.636Z,998.92
2023-04-12T02:07:26.509Z,998.92
2023-04-12T02:07:58.559Z,998.71
2023-04-12T02:08:31.498Z,998.71
2023-04-12T02:09:02.593Z,998.81
2023-04-12T02:09:34.522Z,998.71
2023-04-12T02:10:06.574Z,998.71
2023-04-12T02:10:34.600Z,998.81
2023-04-12T02:10:55.446Z,998.81
2023-04-12T02:11:27.549Z,998.81
2023-04-12T02:11:58.530Z,998.92
2023-04-12T02:12:31.424Z,998.92
2023-04-12T02:13:02.518Z,998.71
2023-04-12T02:13:35.333Z,998.61
2023-04-12T02:14:06.589Z,998.61
2023-04-12T02:14:35.142Z,998.92
2023-04-12T02:14:54.607Z,998.92
2023-04-12T02:15:26.556Z,998.92
2023-04-12T02:16:01.498Z,998.71
2023-04-12T02:16:30.690Z,998.71
2023-04-12T02:17:04.216Z,998.81
2023-04-12T02:17:34.635Z,998.81
2023-04-12T02:18:07.464Z,998.81
2023-04-12T02:18:34.614Z,998.81
2023-04-12T02:18:54.607Z,998.81
2023-04-12T02:19:26.534Z,998.81
2023-04-12T02:19:58.575Z,998.61
2023-04-12T02:20:30.556Z,998.61
2023-04-12T02:21:02.524Z,998.81
2023-04-12T02:21:34.605Z,998.71
2023-04-12T02:22:07.466Z,998.71
2023-04-12T02:22:35.384Z,998.81
2023-04-12T02:22:54.593Z,998.81
2023-04-12T02:23:27.958Z,998.81
2023-04-12T02:23:58.798Z,998.51
2023-04-12T02:24:31.496Z,998.51
2023-04-12T02:25:02.598Z,998.51
2023-04-12T02:25:35.451Z,998.51
2023-04-12T02:26:06.571Z,998.51
2023-04-12T02:26:34.733Z,998.71
2023-04-12T02:26:54.566Z,998.71
2023-04-12T02:27:26.924Z,998.71
2023-04-12T02:27:59.544Z,998.61
2023-04-12T02:28:30.623Z,998.61
2023-04-12T02:29:03.450Z,998.51
2023-04-12T02:29:34.608Z,998.71
2023-04-12T02:30:07.475Z,998.71
2023-04-12T02:30:34.621Z,998.51
2023-04-12T02:30:54.844Z,998.51
2023-04-12T02:31:26.641Z,998.51
2023-04-12T02:31:58.592Z,998.61
2023-04-12T02:32:31.069Z,998.61
2023-04-12T02:33:02.765Z,998.61
2023-04-12T02:33:35.472Z,998.51
2023-04-12T02:34:06.684Z,998.51
2023-04-12T02:34:34.674Z,998.51
2023-04-12T02:34:54.616Z,998.51
2023-04-12T02:35:27.421Z,998.51
2023-04-12T02:35:58.574Z,998.34
2023-04-12T02:36:31.812Z,998.34
2023-04-12T02:37:02.579Z,998.51
2023-04-12T02:37:35.788Z,998.34
2023-04-12T02:38:06.495Z,998.34
2023-04-12T02:38:34.691Z,998.44
2023-04-12T02:38:54.517Z,998.44
2023-04-12T02:39:26.535Z,998.44
2023-04-12T02:39:59.578Z,998.51
2023-04-12T02:40:30.475Z,998.51
2023-04-12T02:41:03.423Z,998.34
2023-04-12T02:41:35.061Z,998.24
2023-04-12T02:42:07.401Z,998.24
2023-04-12T02:42:35.730Z,998.34
2023-04-12T02:42:54.526Z,998.34
2023-04-12T02:43:26.479Z,998.34
2023-04-12T02:43:58.607Z,998.51
2023-04-12T02:44:30.976Z,998.51
2023-04-12T02:45:02.632Z,998.34
2023-04-12T02:45:34.572Z,998.24
2023-04-12T02:46:07.340Z,998.24
2023-04-12T02:46:34.619Z,998.24
2023-04-12T02:46:54.520Z,998.24
2023-04-12T02:47:27.536Z,998.24
2023-04-12T02:47:58.973Z,998.24
2023-04-12T02:48:32.353Z,998.24
2023-04-12T02:49:02.535Z,998.24
2023-04-12T02:49:37.966Z,998.34
2023-04-12T02:50:06.729Z,998.34
2023-04-12T02:50:36.390Z,998.03
2023-04-12T02:50:54.567Z,998.03
2023-04-12T02:51:26.531Z,998.03
2023-04-12T02:51:59.361Z,998.14
2023-04-12T02:52:30.473Z,998.14
2023-04-12T02:53:03.325Z,998.03
2023-04-12T02:53:34.925Z,998.03
2023-04-12T02:54:07.498Z,998.03
2023-04-12T02:54:34.629Z,998.14
2023-04-12T02:54:54.733Z,998.14
2023-04-12T02:55:26.593Z,998.14
2023-04-12T02:55:59.452Z,998.03
2023-04-12T02:56:30.490Z,998.03
2023-04-12T02:57:02.535Z,998.14
2023-04-12T02:57:34.603Z,998.14
2023-04-12T02:58:06.468Z,998.14
2023-04-12T02:58:35.594Z,998.14
2023-04-12T02:58:55.418Z,998.14
2023-04-12T02:59:26.511Z,998.14
2023-04-12T02:59:59.494Z,998.14
2023-04-12T03:00:30.564Z,998.14
2023-04-12T03:01:03.465Z,998.24
2023-04-12T03:01:35.367Z,998.14
2023-04-12T03:02:07.408Z,998.14
2023-04-12T03:02:34.633Z,997.73
2023-04-12T03:02:54.625Z,997.73
2023-04-12T03:03:26.610Z,997.73
2023-04-12T03:03:58.942Z,997.93
2023-04-12T03:04:31.654Z,997.93
2023-04-12T03:05:02.523Z,997.83
2023-04-12T03:05:34.830Z,998.03
2023-04-12T03:06:06.448Z,998.03
2023-04-12T03:06:34.632Z,997.73
2023-04-12T03:06:54.511Z,997.73
2023-04-12T03:07:26.438Z,997.73
2023-04-12T03:07:58.590Z,997.93
2023-04-12T03:08:30.472Z,997.93
2023-04-12T03:09:02.523Z,997.83
2023-04-12T03:09:34.630Z,997.93
2023-04-12T03:10:06.711Z,997.93
2023-04-12T03:10:34.648Z,997.73
2023-04-12T03:10:55.516Z,997.73
2023-04-12T03:11:26.439Z,997.73
2023-04-12T03:11:59.503Z,997.73
2023-04-12T03:12:30.520Z,997.73
2023-04-12T03:13:06.488Z,997.83
2023-04-12T03:13:34.684Z,997.73
2023-04-12T03:14:08.046Z,997.73
2023-04-12T03:14:35.210Z,997.83
2023-04-12T03:14:54.580Z,997.83
2023-04-12T03:15:26.588Z,997.83
2023-04-12T03:15:58.618Z,997.73
2023-04-12T03:16:30.524Z,997.73
2023-04-12T03:17:02.518Z,997.63
2023-04-12T03:17:34.647Z,997.83
2023-04-12T03:18:07.441Z,997.83
2023-04-12T03:18:34.713Z,997.93
2023-04-12T03:18:54.545Z,997.93
2023-04-12T03:19:27.507Z,997.93
2023-04-12T03:19:58.632Z,997.93
2023-04-12T03:20:31.468Z,997.93
2023-04-12T03:21:02.477Z,997.73
2023-04-12T03:21:35.456Z,997.73
2023-04-12T03:22:06.448Z,997.73
2023-04-12T03:22:34.720Z,997.63
2023-04-12T03:22:55.406Z,997.63
2023-04-12T03:23:27.425Z,997.63
2023-04-12T03:24:00.405Z,997.53
2023-04-12T03:24:30.450Z,997.53
2023-04-12T03:25:03.516Z,997.73
2023-04-12T03:25:34.613Z,997.63
2023-04-12T03:26:07.463Z,997.63
2023-04-12T03:26:34.665Z,997.43
2023-04-12T03:26:54.651Z,997.43
2023-04-12T03:27:26.490Z,997.43
2023-04-12T03:27:58.530Z,997.53
2023-04-12T03:28:30.488Z,997.53
2023-04-12T03:29:03.590Z,997.32
2023-04-12T03:29:34.552Z,997.63
2023-04-12T03:30:06.748Z,997.63
2023-04-12T03:30:34.608Z,997.32
2023-04-12T03:30:54.569Z,997.32
2023-04-12T03:31:27.809Z,997.32
2023-04-12T03:31:58.568Z,997.53
2023-04-12T03:32:31.504Z,997.53
2023-04-12T03:33:02.553Z,997.43
2023-04-12T03:33:36.802Z,997.22
2023-04-12T03:34:06.496Z,997.22
2023-04-12T03:34:34.638Z,997.12
2023-04-12T03:34:54.557Z,997.12
2023-04-12T03:35:26.464Z,997.12
2023-04-12T03:35:59.343Z,997.43
2023-04-12T03:36:30.763Z,997.43
2023-04-12T03:37:03.432Z,997.32
2023-04-12T03:37:34.630Z,997.22
2023-04-12T03:38:07.486Z,997.22
2023-04-12T03:38:34.622Z,997.32
2023-04-12T03:38:54.575Z,997.32
2023-04-12T03:39:26.574Z,997.32
2023-04-12T03:39:59.736Z,997.22
2023-04-12T03:40:30.542Z,997.22
2023-04-12T03:41:02.538Z,997.02
2023-04-12T03:41:34.692Z,997.02
2023-04-12T03:42:06.573Z,997.02
2023-04-12T03:42:35.329Z,997.02
2023-04-12T03:42:55.350Z,997.02
2023-04-12T03:43:27.427Z,997.02
2023-04-12T03:43:59.258Z,996.92
2023-04-12T03:44:31.412Z,996.92
2023-04-12T03:45:04.256Z,997.02
2023-04-12T03:45:36.364Z,996.92
2023-04-12T03:46:06.669Z,996.92
2023-04-12T03:46:34.726Z,997.22
2023-04-12T03:46:55.443Z,997.22
2023-04-12T03:47:26.538Z,997.22
2023-04-12T03:47:59.405Z,996.82
2023-04-12T03:48:30.543Z,996.82
2023-04-12T03:49:03.428Z,997.02
2023-04-12T03:49:34.882Z,997.02
2023-04-12T03:50:11.380Z,997.02
2023-04-12T03:50:34.631Z,996.92
2023-04-12T03:50:54.794Z,996.92
2023-04-12T03:51:27.480Z,996.92
2023-04-12T03:51:58.507Z,996.92
2023-04-12T03:52:30.495Z,996.92
2023-04-12T03:53:02.410Z,996.82
2023-04-12T03:53:34.545Z,996.82
2023-04-12T03:54:06.577Z,996.82
2023-04-12T03:54:34.633Z,996.82
2023-04-12T03:54:54.536Z,996.82
2023-04-12T03:55:27.306Z,996.82
2023-04-12T03:55:58.477Z,996.71
2023-04-12T03:56:31.302Z,996.71
2023-04-12T03:57:02.540Z,996.61
2023-04-12T03:57:36.535Z,996.61
2023-04-12T03:58:06.625Z,996.61
2023-04-12T03:58:35.062Z,996.51
2023-04-12T03:58:54.714Z,996.51
2023-04-12T03:59:26.461Z,996.51
2023-04-12T03:59:59.431Z,996.61
2023-04-12T04:00:30.741Z,996.61
2023-04-12T04:01:03.635Z,996.71
2023-04-12T04:01:35.048Z,996.51
2023-04-12T04:02:07.362Z,996.51
2023-04-12T04:02:34.745Z,996.51
2023-04-12T04:02:54.848Z,996.51
2023-04-12T04:03:34.163Z,996.71
2023-04-12T04:03:58.870Z,996.71
2023-04-12T04:04:30.885Z,996.71
2023-04-12T04:05:02.591Z,996.61
2023-04-12T04:05:34.928Z,996.41
2023-04-12T04:06:06.664Z,996.41
2023-04-12T04:06:34.671Z,996.41
2023-04-12T04:06:54.664Z,996.41
2023-04-12T04:07:27.401Z,996.41
2023-04-12T04:07:58.408Z,996.31
2023-04-12T04:08:32.266Z,996.31
2023-04-12T04:09:02.403Z,996.61
2023-04-12T04:09:39.459Z,996.51
2023-04-12T04:10:06.588Z,996.51
2023-04-12T04:10:34.847Z,996.51
2023-04-12T04:10:55.405Z,996.51
2023-04-12T04:11:26.447Z,996.51
2023-04-12T04:11:59.346Z,996.51
2023-04-12T04:12:31.025Z,996.51
2023-04-12T04:13:03.420Z,996.41
2023-04-12T04:13:34.493Z,996.51
2023-04-12T04:14:07.338Z,996.51
2023-04-12T04:14:34.568Z,996.31
2023-04-12T04:14:54.838Z,996.31
2023-04-12T04:15:26.438Z,996.31
2023-04-12T04:15:58.465Z,996.41
2023-04-12T04:16:30.675Z,996.41
2023-04-12T04:17:08.869Z,996.41
2023-04-12T04:17:20.667Z,996.14
2023-04-12T04:17:50.538Z,996.31
2023-04-12T04:18:24.248Z,996.31
2023-04-12T04:18:40.573Z,996.31
2023-04-12T04:19:10.688Z,996.31
2023-04-12T04:19:34.664Z,996.14
2023-04-12T04:19:58.416Z,996.14
2023-04-12T04:20:31.317Z,996.14
2023-04-12T04:21:02.432Z,996.04
2023-04-12T04:21:36.544Z,996.04
2023-04-12T04:22:06.629Z,996.04
2023-04-12T04:22:34.665Z,996.04
2023-04-12T04:22:54.695Z,996.04
2023-04-12T04:23:26.455Z,996.04
2023-04-12T04:23:59.369Z,996.04
2023-04-12T04:24:30.721Z,996.04
2023-04-12T04:25:03.225Z,996.14
2023-04-12T04:25:34.502Z,996.14
2023-04-12T04:26:07.337Z,996.14
2023-04-12T04:26:34.975Z,996.24
2023-04-12T04:26:54.729Z,996.24
2023-04-12T04:27:27.332Z,996.24
2023-04-12T04:27:58.485Z,996.14
2023-04-12T04:28:30.657Z,996.14
2023-04-12T04:29:02.631Z,996.04
2023-04-12T04:29:34.944Z,995.83
2023-04-12T04:30:06.821Z,995.83
2023-04-12T04:30:34.575Z,995.94
2023-04-12T04:30:54.767Z,995.94
2023-04-12T04:31:27.398Z,995.94
2023-04-12T04:31:58.550Z,996.14
2023-04-12T04:32:31.348Z,996.14
2023-04-12T04:33:02.674Z,996.14
2023-04-12T04:33:35.385Z,995.83
2023-04-12T04:34:06.768Z,995.83
2023-04-12T04:34:34.598Z,995.94
2023-04-12T04:34:55.403Z,995.94
2023-04-12T04:35:27.552Z,995.94
2023-04-12T04:35:59.277Z,996.14
2023-04-12T04:36:30.658Z,996.14
2023-04-12T04:37:03.589Z,995.83
2023-04-12T04:37:34.476Z,996.04
2023-04-12T04:38:07.293Z,996.04
2023-04-12T04:38:34.622Z,995.94
2023-04-12T04:38:54.815Z,995.94
2023-04-12T04:39:26.465Z,995.94
2023-04-12T04:39:58.880Z,995.94
2023-04-12T04:40:30.717Z,995.94
2023-04-12T04:41:02.438Z,995.83
2023-04-12T04:41:34.652Z,995.94
2023-04-12T04:42:06.835Z,995.94
2023-04-12T04:42:34.584Z,996.14
2023-04-12T04:42:55.423Z,996.14
2023-04-12T04:43:27.252Z,996.14
2023-04-12T04:43:58.665Z,996.04
2023-04-12T04:44:31.824Z,996.04
2023-04-12T04:45:02.594Z,996.04
2023-04-12T04:45:35.458Z,995.94
2023-04-12T04:46:06.693Z,995.94
2023-04-12T04:46:36.523Z,996.04
2023-04-12T04:46:54.766Z,996.04
2023-04-12T04:47:26.471Z,996.04
2023-04-12T04:47:59.408Z,996.04
2023-04-12T04:48:30.814Z,996.04
2023-04-12T04:49:03.474Z,995.94
2023-04-12T04:49:34.943Z,995.94
2023-04-12T04:50:08.303Z,995.94
2023-04-12T04:50:34.596Z,995.94
2023-04-12T04:50:54.848Z,995.94
2023-04-12T04:51:26.535Z,995.94
2023-04-12T04:51:58.417Z,995.94
2023-04-12T04:52:31.362Z,995.94
2023-04-12T04:53:03.325Z,995.94
2023-04-12T04:53:34.654Z,995.83
2023-04-12T04:54:06.796Z,995.83
2023-04-12T04:54:34.691Z,995.73
2023-04-12T04:54:54.797Z,995.73
2023-04-12T04:55:27.626Z,995.73
2023-04-12T04:55:59.472Z,996.04
2023-04-12T04:56:31.310Z,996.04
2023-04-12T04:57:04.465Z,995.94
2023-04-12T04:57:39.237Z,995.83
2023-04-12T04:58:06.863Z,995.83
2023-04-12T04:58:34.699Z,996.14
2023-04-12T04:58:56.879Z,996.14
2023-04-12T04:59:26.439Z,996.14
2023-04-12T04:59:59.459Z,995.83
2023-04-12T05:00:30.843Z,995.83
2023-04-12T05:01:03.356Z,995.73
2023-04-12T05:01:34.516Z,995.83
2023-04-12T05:02:07.333Z,995.83
2023-04-12T05:02:34.998Z,995.83
2023-04-12T05:02:55.050Z,995.83
2023-04-12T05:03:28.311Z,995.83
2023-04-12T05:03:58.643Z,995.83
2023-04-12T05:04:30.836Z,995.83
2023-04-12T05:05:02.528Z,995.73
2023-04-12T05:05:35.135Z,995.73
2023-04-12T05:06:06.694Z,995.73
2023-04-12T05:06:34.662Z,996.04
2023-04-12T05:06:54.702Z,996.04
2023-04-12T05:07:27.361Z,996.04
2023-04-12T05:07:58.458Z,995.73
2023-04-12T05:08:31.273Z,995.73
2023-04-12T05:09:02.574Z,995.94
2023-04-12T05:09:35.578Z,995.94
2023-04-12T05:10:06.772Z,995.94
2023-04-12T05:10:34.755Z,995.83
2023-04-12T05:10:54.800Z,995.83
2023-04-12T05:11:26.545Z,995.83
2023-04-12T05:11:59.424Z,995.73
2023-04-12T05:12:30.822Z,995.73
2023-04-12T05:13:03.360Z,995.83
2023-04-12T05:13:34.536Z,995.73
2023-04-12T05:14:07.453Z,995.73
2023-04-12T05:14:44.528Z,995.53
2023-04-12T05:15:04.790Z,995.53
2023-04-12T05:15:26.525Z,995.53
2023-04-12T05:15:58.425Z,995.63
2023-04-12T05:16:30.908Z,995.63
2023-04-12T05:17:02.462Z,995.63
2023-04-12T05:17:34.588Z,995.73
2023-04-12T05:18:06.833Z,995.73
2023-04-12T05:18:34.665Z,995.73
2023-04-12T05:18:55.160Z,995.73
2023-04-12T05:19:27.492Z,995.73
2023-04-12T05:19:58.494Z,995.43
2023-04-12T05:20:31.278Z,995.43
2023-04-12T05:21:02.470Z,995.53
2023-04-12T05:21:35.312Z,995.33
2023-04-12T05:22:06.859Z,995.33
2023-04-12T05:22:34.617Z,995.43
2023-04-12T05:22:54.871Z,995.43
2023-04-12T05:23:26.454Z,995.43
2023-04-12T05:23:59.836Z,995.33
2023-04-12T05:24:30.832Z,995.33
2023-04-12T05:25:03.351Z,995.22
2023-04-12T05:25:34.550Z,995.22
2023-04-12T05:26:07.419Z,995.22
2023-04-12T05:26:34.695Z,995.22
2023-04-12T05:26:54.918Z,995.22
2023-04-12T05:27:26.480Z,995.22
2023-04-12T05:27:58.432Z,995.22
2023-04-12T05:28:30.857Z,995.22
2023-04-12T05:29:02.778Z,995.22
2023-04-12T05:29:34.517Z,995.22
2023-04-12T05:30:07.018Z,995.22
2023-04-12T05:30:35.382Z,995.22
2023-04-12T05:30:54.950Z,995.22
2023-04-12T05:31:27.516Z,995.22
2023-04-12T05:31:58.528Z,995.12
2023-04-12T05:32:31.378Z,995.12
2023-04-12T05:33:02.546Z,995.02
2023-04-12T05:33:36.359Z,995.22
2023-04-12T05:34:06.993Z,995.22
2023-04-12T05:34:34.613Z,995.12
2023-04-12T05:34:54.863Z,995.12
2023-04-12T05:35:26.459Z,995.12
2023-04-12T05:35:59.325Z,995.12
2023-04-12T05:36:30.967Z,995.12
2023-04-12T05:37:03.283Z,995.22
2023-04-12T05:37:34.462Z,995.02
2023-04-12T05:38:07.609Z,995.02
2023-04-12T05:38:34.670Z,994.82
2023-04-12T05:38:55.115Z,994.82
2023-04-12T05:39:26.423Z,994.82
2023-04-12T05:39:58.439Z,995.33
2023-04-12T05:40:30.841Z,995.33
2023-04-12T05:41:02.397Z,994.82
2023-04-12T05:41:34.617Z,994.92
2023-04-12T05:42:06.833Z,994.92
2023-04-12T05:42:34.610Z,994.82
2023-04-12T05:42:54.904Z,994.82
2023-04-12T05:43:27.390Z,994.82
2023-04-12T05:43:58.428Z,994.72
2023-04-12T05:44:31.434Z,994.72
2023-04-12T05:45:03.080Z,994.92
2023-04-12T05:45:40.107Z,994.82
2023-04-12T05:46:06.775Z,994.82
2023-04-12T05:46:34.671Z,994.82
2023-04-12T05:46:54.906Z,994.82
2023-04-12T05:47:26.398Z,994.82
2023-04-12T05:47:59.273Z,994.92
2023-04-12T05:48:30.983Z,994.92
2023-04-12T05:49:03.465Z,994.61
2023-04-12T05:49:34.827Z,994.61
2023-04-12T05:50:07.439Z,994.61
2023-04-12T05:50:34.636Z,994.72
2023-04-12T05:50:54.956Z,994.72
2023-04-12T05:51:40.020Z,994.72
2023-04-12T05:51:58.397Z,994.82
2023-04-12T05:52:30.799Z,994.82
2023-04-12T05:53:02.526Z,994.72
2023-04-12T05:53:34.468Z,994.41
2023-04-12T05:54:07.131Z,994.41
2023-04-12T05:54:34.669Z,994.51
2023-04-12T05:54:54.799Z,994.51
2023-04-12T05:55:27.409Z,994.51
2023-04-12T05:55:58.442Z,994.61
2023-04-12T05:56:31.420Z,994.61
2023-04-12T05:57:02.424Z,994.61
2023-04-12T05:57:35.464Z,994.51
2023-04-12T05:58:06.954Z,994.51
2023-04-12T05:58:34.639Z,994.51
2023-04-12T05:58:55.102Z,994.51
2023-04-12T05:59:26.394Z,994.51
2023-04-12T05:59:59.352Z,994.51
2023-04-12T06:00:30.866Z,994.51
2023-04-12T06:01:03.365Z,994.51
2023-04-12T06:01:34.479Z,994.61
2023-04-12T06:02:07.419Z,994.61
2023-04-12T06:02:35.475Z,994.51
2023-04-12T06:02:55.242Z,994.51
2023-04-12T06:03:26.695Z,994.51
2023-04-12T06:03:58.574Z,994.41
2023-04-12T06:04:46.558Z,994.41
2023-04-12T06:05:02.714Z,994.21
2023-04-12T06:05:34.528Z,994.21
2023-04-12T06:06:06.809Z,994.21
2023-04-12T06:06:35.008Z,994.21
2023-04-12T06:06:54.918Z,994.21
2023-04-12T06:07:27.377Z,994.21
2023-04-12T06:07:58.526Z,994.41
2023-04-12T06:08:31.433Z,994.41
2023-04-12T06:09:02.475Z,994.21
2023-04-12T06:09:35.493Z,994.21
2023-04-12T06:10:06.859Z,994.21
2023-04-12T06:10:34.751Z,994.21
2023-04-12T06:10:55.032Z,994.21
2023-04-12T06:11:26.584Z,994.21